sensor_id;sensor_type;location;lat;lon;timestamp;temperature;humidity
73149;SHT30;61346;48.930;2.266;2023-03-01T00:01:27;4.22;48.86
73149;SHT30;61346;48.930;2.266;2023-03-01T00:04:02;4.24;48.92
73149;SHT30;61346;48.930;2.266;2023-03-01T00:06:28;4.24;49.06
73149;SHT30;61346;48.930;2.266;2023-03-01T00:08:54;4.22;49.07
73149;SHT30;61346;48.930;2.266;2023-03-01T00:11:45;4.20;49.05
73149;SHT30;61346;48.930;2.266;2023-03-01T00:14:11;4.17;49.11
73149;SHT30;61346;48.930;2.266;2023-03-01T00:16:39;4.15;49.15
73149;SHT30;61346;48.930;2.266;2023-03-01T00:19:32;4.11;49.14
73149;SHT30;61346;48.930;2.266;2023-03-01T00:21:57;4.10;49.18
73149;SHT30;61346;48.930;2.266;2023-03-01T00:24:26;4.05;49.19
73149;SHT30;61346;48.930;2.266;2023-03-01T00:26:55;4.02;49.25
73149;SHT30;61346;48.930;2.266;2023-03-01T00:29:22;4.01;49.36
73149;SHT30;61346;48.930;2.266;2023-03-01T00:31:48;3.98;49.35
73149;SHT30;61346;48.930;2.266;2023-03-01T00:34:16;3.97;49.43
73149;SHT30;61346;48.930;2.266;2023-03-01T00:36:56;3.95;49.47
73149;SHT30;61346;48.930;2.266;2023-03-01T00:39:50;3.91;49.42
73149;SHT30;61346;48.930;2.266;2023-03-01T00:42:24;3.90;49.56
73149;SHT30;61346;48.930;2.266;2023-03-01T00:44:49;3.87;49.55
73149;SHT30;61346;48.930;2.266;2023-03-01T00:47:25;3.84;49.57
73149;SHT30;61346;48.930;2.266;2023-03-01T00:49:50;3.82;49.63
73149;SHT30;61346;48.930;2.266;2023-03-01T00:52:16;3.80;49.67
73149;SHT30;61346;48.930;2.266;2023-03-01T00:54:41;3.79;49.68
73149;SHT30;61346;48.930;2.266;2023-03-01T00:57:07;3.80;49.73
73149;SHT30;61346;48.930;2.266;2023-03-01T00:59:34;3.79;49.76
73149;SHT30;61346;48.930;2.266;2023-03-01T01:02:00;3.79;49.78
73149;SHT30;61346;48.930;2.266;2023-03-01T01:04:28;3.77;49.83
73149;SHT30;61346;48.930;2.266;2023-03-01T01:06:54;3.76;49.97
73149;SHT30;61346;48.930;2.266;2023-03-01T01:09:30;3.74;49.95
73149;SHT30;61346;48.930;2.266;2023-03-01T01:11:56;3.73;50.00
73149;SHT30;61346;48.930;2.266;2023-03-01T01:14:21;3.74;49.97
73149;SHT30;61346;48.930;2.266;2023-03-01T01:16:56;3.72;50.09
73149;SHT30;61346;48.930;2.266;2023-03-01T01:19:22;3.70;50.24
73149;SHT30;61346;48.930;2.266;2023-03-01T01:21:47;3.69;50.18
73149;SHT30;61346;48.930;2.266;2023-03-01T01:24:25;3.66;50.29
73149;SHT30;61346;48.930;2.266;2023-03-01T01:26:50;3.66;50.22
73149;SHT30;61346;48.930;2.266;2023-03-01T01:29:16;3.64;50.27
73149;SHT30;61346;48.930;2.266;2023-03-01T01:32:03;3.63;50.32
73149;SHT30;61346;48.930;2.266;2023-03-01T01:34:29;3.59;50.39
73149;SHT30;61346;48.930;2.266;2023-03-01T01:37:00;3.59;50.33
73149;SHT30;61346;48.930;2.266;2023-03-01T01:39:28;3.59;50.33
73149;SHT30;61346;48.930;2.266;2023-03-01T01:41:53;3.56;50.37
73149;SHT30;61346;48.930;2.266;2023-03-01T01:44:29;3.53;50.44
73149;SHT30;61346;48.930;2.266;2023-03-01T01:47:04;3.55;50.46
73149;SHT30;61346;48.930;2.266;2023-03-01T01:50:10;3.51;50.48
73149;SHT30;61346;48.930;2.266;2023-03-01T01:52:59;3.46;50.51
73149;SHT30;61346;48.930;2.266;2023-03-01T01:55:33;3.45;50.50
73149;SHT30;61346;48.930;2.266;2023-03-01T01:58:02;3.45;50.61
73149;SHT30;61346;48.930;2.266;2023-03-01T02:00:30;3.45;50.65
73149;SHT30;61346;48.930;2.266;2023-03-01T02:03:01;3.42;50.68
73149;SHT30;61346;48.930;2.266;2023-03-01T02:08:19;3.36;50.76
73149;SHT30;61346;48.930;2.266;2023-03-01T02:11:00;3.36;50.73
73149;SHT30;61346;48.930;2.266;2023-03-01T02:13:33;3.34;50.74
73149;SHT30;61346;48.930;2.266;2023-03-01T02:16:02;3.34;50.83
73149;SHT30;61346;48.930;2.266;2023-03-01T02:18:27;3.31;50.77
73149;SHT30;61346;48.930;2.266;2023-03-01T02:21:10;3.31;50.83
73149;SHT30;61346;48.930;2.266;2023-03-01T02:23:43;3.29;50.95
73149;SHT30;61346;48.930;2.266;2023-03-01T02:28:45;3.25;50.95
73149;SHT30;61346;48.930;2.266;2023-03-01T02:31:19;3.25;51.02
73149;SHT30;61346;48.930;2.266;2023-03-01T02:34:05;3.25;51.09
73149;SHT30;61346;48.930;2.266;2023-03-01T02:36:40;3.22;51.10
73149;SHT30;61346;48.930;2.266;2023-03-01T02:39:35;3.19;51.12
73149;SHT30;61346;48.930;2.266;2023-03-01T02:42:05;3.18;51.31
73149;SHT30;61346;48.930;2.266;2023-03-01T02:44:37;3.18;51.28
73149;SHT30;61346;48.930;2.266;2023-03-01T02:47:12;3.18;51.30
73149;SHT30;61346;48.930;2.266;2023-03-01T02:49:39;3.14;51.36
73149;SHT30;61346;48.930;2.266;2023-03-01T02:52:33;3.14;51.38
73149;SHT30;61346;48.930;2.266;2023-03-01T02:55:10;3.15;51.40
73149;SHT30;61346;48.930;2.266;2023-03-01T02:57:41;3.12;51.42
73149;SHT30;61346;48.930;2.266;2023-03-01T03:00:13;3.12;51.39
73149;SHT30;61346;48.930;2.266;2023-03-01T03:02:45;3.09;51.45
73149;SHT30;61346;48.930;2.266;2023-03-01T03:05:32;3.09;51.48
73149;SHT30;61346;48.930;2.266;2023-03-01T03:08:01;3.09;51.64
73149;SHT30;61346;48.930;2.266;2023-03-01T03:10:32;3.08;51.60
73149;SHT30;61346;48.930;2.266;2023-03-01T03:13:12;3.08;51.55
73149;SHT30;61346;48.930;2.266;2023-03-01T03:15:39;3.05;51.60
73149;SHT30;61346;48.930;2.266;2023-03-01T03:18:14;3.07;51.69
73149;SHT30;61346;48.930;2.266;2023-03-01T03:20:41;3.07;51.72
73149;SHT30;61346;48.930;2.266;2023-03-01T03:23:07;3.05;51.73
73149;SHT30;61346;48.930;2.266;2023-03-01T03:25:34;3.04;51.77
73149;SHT30;61346;48.930;2.266;2023-03-01T03:28:04;3.05;51.74
73149;SHT30;61346;48.930;2.266;2023-03-01T03:30:39;3.04;51.82
73149;SHT30;61346;48.930;2.266;2023-03-01T03:33:30;3.03;51.88
73149;SHT30;61346;48.930;2.266;2023-03-01T03:35:56;3.00;51.91
73149;SHT30;61346;48.930;2.266;2023-03-01T03:38:23;3.00;51.92
73149;SHT30;61346;48.930;2.266;2023-03-01T03:41:08;3.00;51.94
73149;SHT30;61346;48.930;2.266;2023-03-01T03:43:36;2.96;51.92
73149;SHT30;61346;48.930;2.266;2023-03-01T03:46:04;2.94;51.98
73149;SHT30;61346;48.930;2.266;2023-03-01T03:48:42;2.89;51.98
73149;SHT30;61346;48.930;2.266;2023-03-01T03:51:18;2.87;52.09
73149;SHT30;61346;48.930;2.266;2023-03-01T03:53:48;2.89;52.04
73149;SHT30;61346;48.930;2.266;2023-03-01T03:56:14;2.87;52.13
73149;SHT30;61346;48.930;2.266;2023-03-01T03:58:41;2.83;52.29
73149;SHT30;61346;48.930;2.266;2023-03-01T04:01:09;2.84;52.25
73149;SHT30;61346;48.930;2.266;2023-03-01T04:03:35;2.83;52.35
73149;SHT30;61346;48.930;2.266;2023-03-01T04:06:02;2.86;52.58
73149;SHT30;61346;48.930;2.266;2023-03-01T04:08:29;2.81;52.43
73149;SHT30;61346;48.930;2.266;2023-03-01T04:11:05;2.81;52.53
73149;SHT30;61346;48.930;2.266;2023-03-01T04:13:57;2.81;52.57
73149;SHT30;61346;48.930;2.266;2023-03-01T04:16:24;2.84;52.58
73149;SHT30;61346;48.930;2.266;2023-03-01T04:18:50;2.81;52.56
73149;SHT30;61346;48.930;2.266;2023-03-01T04:21:28;2.84;52.59
73149;SHT30;61346;48.930;2.266;2023-03-01T04:23:57;2.80;52.88
73149;SHT30;61346;48.930;2.266;2023-03-01T04:26:22;2.80;52.75
73149;SHT30;61346;48.930;2.266;2023-03-01T04:28:48;2.76;52.74
73149;SHT30;61346;48.930;2.266;2023-03-01T04:31:17;2.77;52.69
73149;SHT30;61346;48.930;2.266;2023-03-01T04:33:59;2.76;53.04
73149;SHT30;61346;48.930;2.266;2023-03-01T04:36:37;2.75;52.85
73149;SHT30;61346;48.930;2.266;2023-03-01T04:39:03;2.72;52.87
73149;SHT30;61346;48.930;2.266;2023-03-01T04:41:38;2.69;52.91
73149;SHT30;61346;48.930;2.266;2023-03-01T04:44:26;2.67;52.94
73149;SHT30;61346;48.930;2.266;2023-03-01T04:46:52;2.69;52.96
73149;SHT30;61346;48.930;2.266;2023-03-01T04:49:19;2.67;52.98
73149;SHT30;61346;48.930;2.266;2023-03-01T04:51:45;2.66;52.96
73149;SHT30;61346;48.930;2.266;2023-03-01T04:54:10;2.60;53.09
73149;SHT30;61346;48.930;2.266;2023-03-01T04:56:36;2.63;53.04
73149;SHT30;61346;48.930;2.266;2023-03-01T04:59:08;2.62;53.14
73149;SHT30;61346;48.930;2.266;2023-03-01T05:01:53;2.60;53.15
73149;SHT30;61346;48.930;2.266;2023-03-01T05:04:23;2.57;53.22
73149;SHT30;61346;48.930;2.266;2023-03-01T05:07:16;2.57;53.23
73149;SHT30;61346;48.930;2.266;2023-03-01T05:09:46;2.56;53.30
73149;SHT30;61346;48.930;2.266;2023-03-01T05:12:25;2.54;53.35
73149;SHT30;61346;48.930;2.266;2023-03-01T05:15:06;2.56;53.47
73149;SHT30;61346;48.930;2.266;2023-03-01T05:17:33;2.53;53.45
73149;SHT30;61346;48.930;2.266;2023-03-01T05:20:16;2.56;53.51
73149;SHT30;61346;48.930;2.266;2023-03-01T05:22:42;2.56;53.55
73149;SHT30;61346;48.930;2.266;2023-03-01T05:25:08;2.56;53.57
73149;SHT30;61346;48.930;2.266;2023-03-01T05:27:35;2.54;53.51
73149;SHT30;61346;48.930;2.266;2023-03-01T05:30:01;2.52;53.72
73149;SHT30;61346;48.930;2.266;2023-03-01T05:32:44;2.53;53.70
73149;SHT30;61346;48.930;2.266;2023-03-01T05:35:13;2.54;53.62
73149;SHT30;61346;48.930;2.266;2023-03-01T05:37:51;2.53;53.76
73149;SHT30;61346;48.930;2.266;2023-03-01T05:40:43;2.53;53.78
73149;SHT30;61346;48.930;2.266;2023-03-01T05:43:09;2.53;53.84
73149;SHT30;61346;48.930;2.266;2023-03-01T05:45:39;2.54;53.84
73149;SHT30;61346;48.930;2.266;2023-03-01T05:48:07;2.53;53.88
73149;SHT30;61346;48.930;2.266;2023-03-01T05:50:35;2.50;53.94
73149;SHT30;61346;48.930;2.266;2023-03-01T05:53:03;2.52;53.97
73149;SHT30;61346;48.930;2.266;2023-03-01T05:55:31;2.49;54.03
73149;SHT30;61346;48.930;2.266;2023-03-01T05:58:06;2.49;54.07
73149;SHT30;61346;48.930;2.266;2023-03-01T06:00:32;2.49;54.08
73149;SHT30;61346;48.930;2.266;2023-03-01T06:02:59;2.50;54.11
73149;SHT30;61346;48.930;2.266;2023-03-01T06:05:25;2.45;54.15
73149;SHT30;61346;48.930;2.266;2023-03-01T06:07:51;2.46;54.18
73149;SHT30;61346;48.930;2.266;2023-03-01T06:13:03;2.41;54.22
73149;SHT30;61346;48.930;2.266;2023-03-01T06:15:28;2.39;54.28
73149;SHT30;61346;48.930;2.266;2023-03-01T06:17:55;2.38;54.32
73149;SHT30;61346;48.930;2.266;2023-03-01T06:20:42;2.39;54.46
73149;SHT30;61346;48.930;2.266;2023-03-01T06:23:15;2.33;54.46
73149;SHT30;61346;48.930;2.266;2023-03-01T06:25:40;2.32;54.42
73149;SHT30;61346;48.930;2.266;2023-03-01T06:28:06;2.31;54.43
73149;SHT30;61346;48.930;2.266;2023-03-01T06:30:34;2.32;54.56
73149;SHT30;61346;48.930;2.266;2023-03-01T06:33:00;2.31;54.52
73149;SHT30;61346;48.930;2.266;2023-03-01T08:14:09;3.39;55.87
73149;SHT30;61346;48.930;2.266;2023-03-01T08:16:38;3.45;55.81
73149;SHT30;61346;48.930;2.266;2023-03-01T08:19:08;3.55;55.88
73149;SHT30;61346;48.930;2.266;2023-03-01T08:21:53;3.62;55.86
73149;SHT30;61346;48.930;2.266;2023-03-01T08:24:18;3.69;55.75
73149;SHT30;61346;48.930;2.266;2023-03-01T08:27:04;3.76;55.75
73149;SHT30;61346;48.930;2.266;2023-03-01T08:32:14;3.91;55.59
73149;SHT30;61346;48.930;2.266;2023-03-01T08:34:39;3.98;55.58
73149;SHT30;61346;48.930;2.266;2023-03-01T08:37:05;4.08;55.47
73149;SHT30;61346;48.930;2.266;2023-03-01T08:39:30;4.11;55.43
73149;SHT30;61346;48.930;2.266;2023-03-01T08:41:56;4.18;55.40
73149;SHT30;61346;48.930;2.266;2023-03-01T08:47:06;4.28;55.26
73149;SHT30;61346;48.930;2.266;2023-03-01T08:49:37;4.35;55.28
73149;SHT30;61346;48.930;2.266;2023-03-01T08:52:03;4.35;55.18
73149;SHT30;61346;48.930;2.266;2023-03-01T08:54:31;4.39;55.17
73149;SHT30;61346;48.930;2.266;2023-03-01T08:56:57;4.44;55.13
73149;SHT30;61346;48.930;2.266;2023-03-01T08:59:25;4.44;55.03
73149;SHT30;61346;48.930;2.266;2023-03-01T09:01:50;4.45;55.02
73149;SHT30;61346;48.930;2.266;2023-03-01T09:04:16;4.50;55.04
73149;SHT30;61346;48.930;2.266;2023-03-01T09:06:42;4.53;55.05
73149;SHT30;61346;48.930;2.266;2023-03-01T09:09:16;4.60;55.04
73149;SHT30;61346;48.930;2.266;2023-03-01T09:11:42;4.67;55.02
73149;SHT30;61346;48.930;2.266;2023-03-01T09:14:10;4.75;55.00
73149;SHT30;61346;48.930;2.266;2023-03-01T09:16:36;4.80;54.96
73149;SHT30;61346;48.930;2.266;2023-03-01T09:19:05;4.88;54.96
73149;SHT30;61346;48.930;2.266;2023-03-01T09:21:31;4.97;54.89
73149;SHT30;61346;48.930;2.266;2023-03-01T09:24:12;5.03;54.85
73149;SHT30;61346;48.930;2.266;2023-03-01T09:26:57;5.13;54.75
73149;SHT30;61346;48.930;2.266;2023-03-01T09:29:23;5.18;54.71
73149;SHT30;61346;48.930;2.266;2023-03-01T09:31:48;5.24;54.59
73149;SHT30;61346;48.930;2.266;2023-03-01T09:34:15;5.31;54.54
73149;SHT30;61346;48.930;2.266;2023-03-01T09:36:44;5.38;54.45
73149;SHT30;61346;48.930;2.266;2023-03-01T09:39:09;5.41;54.44
73149;SHT30;61346;48.930;2.266;2023-03-01T09:47:01;5.56;54.12
73149;SHT30;61346;48.930;2.266;2023-03-01T09:49:33;5.59;54.12
73149;SHT30;61346;48.930;2.266;2023-03-01T09:55:01;5.70;53.95
73149;SHT30;61346;48.930;2.266;2023-03-01T09:57:33;5.81;54.02
73149;SHT30;61346;48.930;2.266;2023-03-01T10:00:26;5.85;53.90
73149;SHT30;61346;48.930;2.266;2023-03-01T10:03:07;5.93;53.83
73149;SHT30;61346;48.930;2.266;2023-03-01T10:05:44;6.04;53.81
73149;SHT30;61346;48.930;2.266;2023-03-01T10:08:31;6.11;53.68
73149;SHT30;61346;48.930;2.266;2023-03-01T10:11:02;6.18;53.68
73149;SHT30;61346;48.930;2.266;2023-03-01T10:19:05;6.42;53.41
73149;SHT30;61346;48.930;2.266;2023-03-01T10:21:37;6.45;52.73
73149;SHT30;61346;48.930;2.266;2023-03-01T10:24:15;6.49;53.06
73149;SHT30;61346;48.930;2.266;2023-03-01T10:29:45;6.53;52.82
73149;SHT30;61346;48.930;2.266;2023-03-01T10:32:14;6.56;52.46
73149;SHT30;61346;48.930;2.266;2023-03-01T10:34:42;6.57;52.51
73149;SHT30;61346;48.930;2.266;2023-03-01T10:40:18;6.65;52.65
73149;SHT30;61346;48.930;2.266;2023-03-01T10:42:48;6.63;52.49
73149;SHT30;61346;48.930;2.266;2023-03-01T10:48:37;6.73;52.63
73149;SHT30;61346;48.930;2.266;2023-03-01T10:51:07;6.77;52.51
73149;SHT30;61346;48.930;2.266;2023-03-01T10:53:41;6.83;52.65
73149;SHT30;61346;48.930;2.266;2023-03-01T10:56:10;6.89;52.68
73149;SHT30;61346;48.930;2.266;2023-03-01T10:58:41;6.99;52.55
73149;SHT30;61346;48.930;2.266;2023-03-01T11:07:01;7.22;52.53
73149;SHT30;61346;48.930;2.266;2023-03-01T11:09:31;7.28;52.38
73149;SHT30;61346;48.930;2.266;2023-03-01T11:12:03;7.39;52.43
73149;SHT30;61346;48.930;2.266;2023-03-01T11:14:35;7.48;52.35
73149;SHT30;61346;48.930;2.266;2023-03-01T13:06:55;14.13;47.13
73149;SHT30;61346;48.930;2.266;2023-03-01T13:15:39;13.92;46.81
73149;SHT30;61346;48.930;2.266;2023-03-01T13:18:34;13.81;45.96
73149;SHT30;61346;48.930;2.266;2023-03-01T13:21:04;13.77;45.44
73149;SHT30;61346;48.930;2.266;2023-03-01T13:24:00;13.67;45.99
73149;SHT30;61346;48.930;2.266;2023-03-01T13:36:00;13.67;45.75
73149;SHT30;61346;48.930;2.266;2023-03-01T13:38:48;13.64;45.70
73149;SHT30;61346;48.930;2.266;2023-03-01T13:50:38;13.96;45.60
73149;SHT30;61346;48.930;2.266;2023-03-01T13:56:15;14.33;45.35
73149;SHT30;61346;48.930;2.266;2023-03-01T14:02:46;14.50;44.88
73149;SHT30;61346;48.930;2.266;2023-03-01T14:08:50;14.43;44.43
73149;SHT30;61346;48.930;2.266;2023-03-01T14:21:12;14.27;43.81
73149;SHT30;61346;48.930;2.266;2023-03-01T14:23:52;14.29;43.75
73149;SHT30;61346;48.930;2.266;2023-03-01T14:26:22;14.30;44.08
73149;SHT30;61346;48.930;2.266;2023-03-01T14:28:51;14.34;44.05
73149;SHT30;61346;48.930;2.266;2023-03-01T14:31:36;14.33;43.35
73149;SHT30;61346;48.930;2.266;2023-03-01T14:34:33;14.33;43.65
73149;SHT30;61346;48.930;2.266;2023-03-01T14:40:36;14.47;43.40
73149;SHT30;61346;48.930;2.266;2023-03-01T14:43:43;14.30;43.40
73149;SHT30;61346;48.930;2.266;2023-03-01T14:49:43;14.02;43.46
73149;SHT30;61346;48.930;2.266;2023-03-01T14:52:24;13.95;43.53
73149;SHT30;61346;48.930;2.266;2023-03-01T14:55:05;14.13;43.90
73149;SHT30;61346;48.930;2.266;2023-03-01T14:57:31;14.25;43.38
73149;SHT30;61346;48.930;2.266;2023-03-01T15:03:34;14.12;43.42
73149;SHT30;61346;48.930;2.266;2023-03-01T15:06:10;14.26;43.19
73149;SHT30;61346;48.930;2.266;2023-03-01T15:08:42;14.22;43.16
73149;SHT30;61346;48.930;2.266;2023-03-01T15:14:55;14.09;42.71
73149;SHT30;61346;48.930;2.266;2023-03-01T15:17:41;14.10;42.81
73149;SHT30;61346;48.930;2.266;2023-03-01T15:20:17;14.15;43.03
73149;SHT30;61346;48.930;2.266;2023-03-01T15:23:06;14.16;43.01
73149;SHT30;61346;48.930;2.266;2023-03-01T15:26:02;14.25;42.99
73149;SHT30;61346;48.930;2.266;2023-03-01T15:28:34;14.30;42.88
73149;SHT30;61346;48.930;2.266;2023-03-01T15:31:31;14.25;42.64
73149;SHT30;61346;48.930;2.266;2023-03-01T15:36:49;14.17;42.74
73149;SHT30;61346;48.930;2.266;2023-03-01T15:39:37;14.16;42.75
73149;SHT30;61346;48.930;2.266;2023-03-01T15:42:06;14.12;42.54
73149;SHT30;61346;48.930;2.266;2023-03-01T15:45:20;14.04;42.45
73149;SHT30;61346;48.930;2.266;2023-03-01T15:47:50;13.98;42.59
73149;SHT30;61346;48.930;2.266;2023-03-01T15:50:24;13.92;42.61
73149;SHT30;61346;48.930;2.266;2023-03-01T15:52:50;13.96;42.96
73149;SHT30;61346;48.930;2.266;2023-03-01T15:55:23;14.05;43.02
73149;SHT30;61346;48.930;2.266;2023-03-01T15:57:49;14.29;43.13
73149;SHT30;61346;48.930;2.266;2023-03-01T16:00:17;14.63;42.60
73149;SHT30;61346;48.930;2.266;2023-03-01T16:02:44;14.64;42.23
73149;SHT30;61346;48.930;2.266;2023-03-01T16:05:35;14.43;42.09
73149;SHT30;61346;48.930;2.266;2023-03-01T16:08:05;14.16;41.97
73149;SHT30;61346;48.930;2.266;2023-03-01T16:11:05;13.86;42.07
73149;SHT30;61346;48.930;2.266;2023-03-01T16:13:37;13.61;42.26
73149;SHT30;61346;48.930;2.266;2023-03-01T16:16:03;13.43;42.44
73149;SHT30;61346;48.930;2.266;2023-03-01T16:21:23;13.03;42.24
73149;SHT30;61346;48.930;2.266;2023-03-01T16:23:49;12.84;40.28
73149;SHT30;61346;48.930;2.266;2023-03-01T16:26:22;12.62;42.13
73149;SHT30;61346;48.930;2.266;2023-03-01T16:29:26;12.33;41.95
73149;SHT30;61346;48.930;2.266;2023-03-01T16:32:02;12.07;42.19
73149;SHT30;61346;48.930;2.266;2023-03-01T16:34:48;11.90;42.42
73149;SHT30;61346;48.930;2.266;2023-03-01T16:38:03;11.69;42.62
73149;SHT30;61346;48.930;2.266;2023-03-01T16:40:50;11.50;42.44
73149;SHT30;61346;48.930;2.266;2023-03-01T16:43:22;11.34;42.82
73149;SHT30;61346;48.930;2.266;2023-03-01T16:45:50;11.16;42.97
73149;SHT30;61346;48.930;2.266;2023-03-01T16:48:16;11.06;42.74
73149;SHT30;61346;48.930;2.266;2023-03-01T16:50:46;10.89;43.11
73149;SHT30;61346;48.930;2.266;2023-03-01T16:53:20;10.75;43.17
73149;SHT30;61346;48.930;2.266;2023-03-01T16:55:52;10.61;43.39
73149;SHT30;61346;48.930;2.266;2023-03-01T16:58:18;10.48;43.42
73149;SHT30;61346;48.930;2.266;2023-03-01T17:00:43;10.38;43.44
73149;SHT30;61346;48.930;2.266;2023-03-01T17:03:25;10.25;43.68
73149;SHT30;61346;48.930;2.266;2023-03-01T17:06:18;10.13;43.78
73149;SHT30;61346;48.930;2.266;2023-03-01T17:08:48;10.03;43.92
73149;SHT30;61346;48.930;2.266;2023-03-01T17:11:18;9.93;44.00
73149;SHT30;61346;48.930;2.266;2023-03-01T17:13:53;9.82;44.00
73149;SHT30;61346;48.930;2.266;2023-03-01T17:16:43;9.73;44.13
73149;SHT30;61346;48.930;2.266;2023-03-01T17:19:31;9.62;44.29
73149;SHT30;61346;48.930;2.266;2023-03-01T17:21:57;9.49;44.32
73149;SHT30;61346;48.930;2.266;2023-03-01T17:24:22;9.42;44.44
73149;SHT30;61346;48.930;2.266;2023-03-01T17:26:56;9.30;44.49
73149;SHT30;61346;48.930;2.266;2023-03-01T17:29:23;9.20;44.63
73149;SHT30;61346;48.930;2.266;2023-03-01T17:31:49;9.11;44.67
73149;SHT30;61346;48.930;2.266;2023-03-01T17:34:14;9.03;44.80
73149;SHT30;61346;48.930;2.266;2023-03-01T17:36:43;8.96;44.84
73149;SHT30;61346;48.930;2.266;2023-03-01T17:39:20;8.84;44.95
73149;SHT30;61346;48.930;2.266;2023-03-01T17:45:22;8.63;45.15
73149;SHT30;61346;48.930;2.266;2023-03-01T17:47:47;8.58;45.24
73149;SHT30;61346;48.930;2.266;2023-03-01T17:50:14;8.49;45.33
73149;SHT30;61346;48.930;2.266;2023-03-01T17:52:40;8.42;45.44
73149;SHT30;61346;48.930;2.266;2023-03-01T17:55:28;8.35;45.47
73149;SHT30;61346;48.930;2.266;2023-03-01T17:58:07;8.30;45.55
73149;SHT30;61346;48.930;2.266;2023-03-01T18:03:52;8.15;45.74
73149;SHT30;61346;48.930;2.266;2023-03-01T18:06:41;8.11;45.80
73149;SHT30;61346;48.930;2.266;2023-03-01T18:09:28;8.05;45.94
73149;SHT30;61346;48.930;2.266;2023-03-01T18:11:54;8.01;45.99
73149;SHT30;61346;48.930;2.266;2023-03-01T18:14:20;7.95;46.04
73149;SHT30;61346;48.930;2.266;2023-03-01T18:16:47;7.95;46.07
73149;SHT30;61346;48.930;2.266;2023-03-01T18:19:15;7.89;46.16
73149;SHT30;61346;48.930;2.266;2023-03-01T19:28:10;6.96;47.56
73149;SHT30;61346;48.930;2.266;2023-03-01T19:59:58;6.70;48.04
73149;SHT30;61346;48.930;2.266;2023-03-01T20:34:49;6.36;48.65
73149;SHT30;61346;48.930;2.266;2023-03-01T22:28:53;5.62;50.54
73149;SHT30;61346;48.930;2.266;2023-03-01T23:04:33;5.51;51.11
73149;SHT30;61346;48.930;2.266;2023-03-01T23:10:14;5.46;51.08
73149;SHT30;61346;48.930;2.266;2023-03-01T23:12:40;5.45;51.09
73149;SHT30;61346;48.930;2.266;2023-03-01T23:15:08;5.39;51.08
73149;SHT30;61346;48.930;2.266;2023-03-01T23:17:34;5.41;51.11
73149;SHT30;61346;48.930;2.266;2023-03-01T23:20:00;5.41;51.19
73149;SHT30;61346;48.930;2.266;2023-03-01T23:22:29;5.38;51.22
73149;SHT30;61346;48.930;2.266;2023-03-01T23:24:55;5.36;51.17
73149;SHT30;61346;48.930;2.266;2023-03-01T23:27:20;5.32;51.23
73149;SHT30;61346;48.930;2.266;2023-03-01T23:29:50;5.28;51.23
73149;SHT30;61346;48.930;2.266;2023-03-01T23:32:17;5.28;51.31
73149;SHT30;61346;48.930;2.266;2023-03-01T23:34:42;5.27;51.36
73149;SHT30;61346;48.930;2.266;2023-03-01T23:37:08;5.27;51.43
73149;SHT30;61346;48.930;2.266;2023-03-01T23:39:34;5.24;51.46
73149;SHT30;61346;48.930;2.266;2023-03-01T23:42:00;5.22;51.49
73149;SHT30;61346;48.930;2.266;2023-03-01T23:44:25;5.22;51.51
73149;SHT30;61346;48.930;2.266;2023-03-01T23:46:51;5.22;51.58
73149;SHT30;61346;48.930;2.266;2023-03-01T23:49:19;5.22;51.57
73149;SHT30;61346;48.930;2.266;2023-03-01T23:51:45;5.22;51.59
73149;SHT30;61346;48.930;2.266;2023-03-01T23:54:14;5.20;51.57
73149;SHT30;61346;48.930;2.266;2023-03-01T23:56:41;5.15;51.58
73149;SHT30;61346;48.930;2.266;2023-03-01T23:59:16;5.13;51.71
